Weather reports worldwide

Advertisment
Mont Aigoual, France (7560): temperature & dewpoint: 20.03.2019 08:00:00 - 26.03.2019 08:00:00 (CET)Mont Aigoual, France (7560): wind speed & gusts: 20.03.2019 08:00:00 - 26.03.2019 08:00:00 (CET)Mont Aigoual, France (7560): wind direction: 20.03.2019 08:00:00 - 26.03.2019 08:00:00 (CET)Mont Aigoual, France (7560): visibility: 20.03.2019 08:00:00 - 26.03.2019 08:00:00 (CET)Mont Aigoual, France (7560): precipitation: 20.03.2019 08:00:00 - 26.03.2019 08:00:00 (CET)
Date & Time tt [°C] td [°C] ff [km/h] ff [kn] fx [km/h] fx [kn] dd vv [km] rr [mm]
26.03.2019 08:00:00 - - - - - - - - -
26.03.2019 07:00:00 -3,1 -10,9 85 46 131 71 NNE 20 0,0
26.03.2019 06:00:00 -3,6 -9,4 58 31 115 62 N 20 0,0
26.03.2019 05:00:00 -2,8 -11,5 60 32 124 67 NNE 20 0,0
26.03.2019 04:00:00 -2,7 -11,2 68 37 127 69 NNE 20 0,0
26.03.2019 03:00:00 -3,6 -9,2 61 33 113 61 N 20 0,0
26.03.2019 02:00:00 -3,3 -8,9 48 26 91 49 N 20 0,0
26.03.2019 01:00:00 -3,4 -9,4 56 30 105 57 N 20 0,0
26.03.2019 00:00:00 -3,5 -8,2 74 40 119 64 N 20 0,0
25.03.2019 23:00:00 -3,1 -8,2 87 47 134 72 N 20 0,0
25.03.2019 22:00:00 -2,8 -7,0 90 49 135 73 N 20 0,0
25.03.2019 21:00:00 -2,5 -7,6 87 47 133 72 N 20 0,0
25.03.2019 20:00:00 -1,6 -5,8 67 36 113 61 N 20 0,0
25.03.2019 19:00:00 -0,5 -4,6 74 40 109 59 N 20 0,0
25.03.2019 18:00:00 1,6 -3,9 53 29 90 48 N 20 0,0
25.03.2019 17:00:00 3,3 -3,5 51 28 86 46 N 20 0,0
25.03.2019 16:00:00 4,6 -3,0 58 31 82 44 N 20 0,0
25.03.2019 15:00:00 5,2 -3,1 50 27 71 38 N 20 0,0
25.03.2019 14:00:00 5,4 -3,2 39 21 68 37 N 20 0,0
25.03.2019 13:00:00 4,6 -3,4 48 26 67 36 N 20 0,0
25.03.2019 12:00:00 3,7 -2,3 38 20 61 33 N 16 0,0
25.03.2019 11:00:00 2,4 -3,1 37 20 70 38 N 11 0,0
25.03.2019 10:00:00 0,6 -3,0 48 26 83 45 NNW 12 0,0
25.03.2019 09:00:00 -0,4 -4,1 59 32 93 50 NNW 14 0,0
25.03.2019 08:00:00 -1,6 -3,0 72 39 89 48 NW 8 0,0
25.03.2019 07:00:00 -1,1 -2,4 69 38 90 49 NW 5 0,0
25.03.2019 06:00:00 0,3 -2,7 71 38 89 48 NW 1,6 0,0
25.03.2019 05:00:00 0,3 0,2 67 36 87 47 NW 0,2 0,0
25.03.2019 04:00:00 1,3 0,7 64 35 84 45 NW 3,9 0,0
25.03.2019 03:00:00 1,6 1,2 49 26 62 34 NNW 2,3 0,0
25.03.2019 02:00:00 2,5 1,5 41 22 46 25 NW 4,1 0,0
25.03.2019 01:00:00 2,7 1,7 34 18 40 22 NW 5 0,0
25.03.2019 00:00:00 3,3 0,0 39 21 47 25 NW 17 0,0
24.03.2019 23:00:00 4,5 -0,3 41 22 54 29 NNW 20 0,0
24.03.2019 22:00:00 5,1 -1,8 43 23 62 34 NNW 20 0,0
24.03.2019 21:00:00 5,8 -2,1 47 26 64 35 NNW 20 0,0
24.03.2019 20:00:00 6,8 -3,2 45 24 59 32 NW 20 0,0
24.03.2019 19:00:00 8,0 -3,5 39 21 53 29 NW 20 0,0
24.03.2019 18:00:00 10,0 -4,4 33 18 49 26 NW 20 0,0
24.03.2019 17:00:00 11,4 -3,9 26 14 41 22 NW 20 0,0
24.03.2019 16:00:00 11,9 -3,1 26 14 44 24 WNW 20 0,0
24.03.2019 15:00:00 12,1 -3,3 14 7 37 20 NNW 20 0,0
24.03.2019 14:00:00 12,0 -3,8 14 8 35 19 WNW 20 0,0
24.03.2019 13:00:00 11,1 -3,8 15 8 30 16 NNW 20 0,0
24.03.2019 12:00:00 10,6 -4,6 16 9 29 16 NW 20 0,0
24.03.2019 11:00:00 10,3 -2,1 10 5 28 15 NNW 20 0,0
24.03.2019 10:00:00 9,4 -1,4 13 7 44 24 NNW 20 0,0
24.03.2019 09:00:00 8,2 -1,6 31 17 46 25 NW 20 0,0
24.03.2019 08:00:00 7,6 -3,3 31 17 42 23 NNW 20 0,0
24.03.2019 07:00:00 7,3 -4,2 31 17 36 19 NNW 20 0,0
24.03.2019 06:00:00 7,3 -6,8 27 14 32 18 NNW 20 0,0
24.03.2019 05:00:00 7,4 -6,0 21 12 26 14 N 20 0,0
24.03.2019 04:00:00 7,6 -8,1 19 10 22 12 N 20 0,0
24.03.2019 03:00:00 7,5 -4,6 12 6 14 8 NW 20 0,0
24.03.2019 02:00:00 7,8 -4,3 7 4 18 10 WNW 20 0,0
24.03.2019 01:00:00 7,6 -2,7 8 5 22 12 WNW 20 0,0
24.03.2019 00:00:00 7,9 -3,6 15 8 24 13 WSW 20 0,0
23.03.2019 23:00:00 8,1 -2,3 21 11 26 14 WSW 20 0,0
23.03.2019 22:00:00 8,1 -4,1 20 11 29 16 W 20 0,0
23.03.2019 21:00:00 8,8 -4,1 16 9 18 10 S 20 0,0
23.03.2019 20:00:00 9,3 -4,7 9 5 13 7 ESE 20 0,0
23.03.2019 19:00:00 10,3 -4,9 4 2 25 14 E 20 0,0
23.03.2019 18:00:00 11,1 -6,8 16 9 29 15 N 20 0,0
23.03.2019 17:00:00 12,0 -7,5 16 8 34 18 N 20 0,0
23.03.2019 16:00:00 12,2 -7,3 20 11 36 19 N 20 0,0
23.03.2019 15:00:00 12,1 -6,9 23 13 43 23 N 20 0,0
23.03.2019 14:00:00 11,9 -6,1 26 14 44 24 N 20 0,0
23.03.2019 13:00:00 11,3 -5,7 24 13 41 22 N 20 0,0
23.03.2019 12:00:00 10,5 -4,3 24 13 39 21 N 20 0,0
23.03.2019 11:00:00 9,7 -3,6 23 12 37 20 N 20 0,0
23.03.2019 10:00:00 9,5 -4,1 20 11 35 19 N 20 0,0
23.03.2019 09:00:00 8,8 -5,1 14 8 35 19 N 20 0,0
23.03.2019 08:00:00 7,9 -5,6 24 13 45 24 N 20 0,0
23.03.2019 07:00:00 6,9 -4,5 31 17 44 24 N 20 0,0
23.03.2019 06:00:00 6,8 -3,7 29 15 45 24 N 20 0,0
23.03.2019 05:00:00 6,7 -3,6 38 21 44 24 NNW 20 0,0
23.03.2019 04:00:00 7,0 -3,3 32 18 37 20 NW 20 0,0
23.03.2019 03:00:00 6,7 -3,0 25 14 28 15 NW 20 0,0
23.03.2019 02:00:00 7,1 -2,4 19 10 21 12 NW 20 0,0
23.03.2019 01:00:00 6,7 -2,2 13 7 19 11 NNW 20 0,0
23.03.2019 00:00:00 6,6 -1,6 15 8 21 11 NNW 20 0,0
22.03.2019 23:00:00 6,8 -1,4 17 9 25 13 NNW 20 0,0
22.03.2019 22:00:00 6,9 -1,5 20 11 25 13 NW 20 0,0
22.03.2019 21:00:00 7,9 -3,3 20 11 22 12 N 20 0,0
22.03.2019 20:00:00 8,8 -4,4 7 4 14 7 N 20 0,0
22.03.2019 19:00:00 9,3 -2,7 4 2 16 9 SSW 20 0,0
22.03.2019 18:00:00 10,8 -2,3 10 6 20 11 S 20 0,0
22.03.2019 17:00:00 11,6 -1,2 9 5 30 16 S 20 0,0
22.03.2019 16:00:00 11,7 -1,5 14 8 34 18 S 20 0,0
22.03.2019 15:00:00 11,4 -1,7 11 6 32 18 S 20 0,0
22.03.2019 14:00:00 10,7 -2,7 16 9 34 18 S 20 0,0
22.03.2019 13:00:00 10,0 -2,7 16 9 31 17 S 20 0,0
22.03.2019 12:00:00 9,5 -3,8 12 6 29 15 S 20 0,0
22.03.2019 11:00:00 8,5 -3,1 13 7 26 14 S 20 0,0
22.03.2019 10:00:00 7,7 -5,4 16 9 24 13 S 20 0,0
22.03.2019 09:00:00 7,1 -5,9 11 6 24 13 S 20 0,0
22.03.2019 08:00:00 5,9 -7,0 18 10 26 14 SE 20 0,0
22.03.2019 07:00:00 4,6 -10,7 15 8 26 14 E 20 0,0
22.03.2019 06:00:00 4,8 -11,3 19 11 26 14 E 20 0,0
22.03.2019 05:00:00 4,5 -7,0 18 10 25 13 E 20 0,0
22.03.2019 04:00:00 4,2 -5,6 16 9 28 15 ENE 20 0,0
22.03.2019 03:00:00 4,0 -5,5 18 10 24 13 NE 20 0,0
22.03.2019 02:00:00 4,5 -8,6 16 8 18 10 NE 20 0,0
22.03.2019 01:00:00 5,4 -12,1 9 5 14 8 E 20 0,0
22.03.2019 00:00:00 5,2 -11,4 6 3 14 7 E 20 0,0
21.03.2019 23:00:00 4,5 -7,6 8 4 12 7 ESE 20 0,0
21.03.2019 22:00:00 4,1 -4,9 9 5 16 9 N 20 0,0
21.03.2019 21:00:00 4,6 -5,2 10 5 14 8 N 20 0,0
21.03.2019 20:00:00 4,3 -6,3 14 7 21 12 NNW 20 0,0
21.03.2019 19:00:00 5,8 -6,8 10 5 16 9 NNW 20 0,0
21.03.2019 18:00:00 7,6 -8,1 6 3 25 13 SW 20 0,0
21.03.2019 17:00:00 8,0 -9,0 15 8 28 15 S 20 0,0
21.03.2019 16:00:00 8,1 -9,8 18 10 30 16 S 20 0,0
21.03.2019 15:00:00 7,9 -6,6 13 7 29 16 S 20 0,0
21.03.2019 14:00:00 7,3 -5,8 15 8 30 16 S 20 0,0
21.03.2019 13:00:00 6,9 -4,8 12 7 25 14 S 20 0,0
21.03.2019 12:00:00 5,9 -4,6 13 7 27 15 S 20 0,0
21.03.2019 11:00:00 4,6 -7,2 5 3 15 8 ENE 20 0,0
21.03.2019 10:00:00 3,5 -7,1 5 3 14 7 S 20 0,0
21.03.2019 09:00:00 2,3 -10,3 2 1 12 7 SSE 20 0,0
21.03.2019 08:00:00 0,9 -10,3 8 4 15 8 N 20 0,0
21.03.2019 07:00:00 -0,3 -10,3 14 7 23 13 N 20 0,0
21.03.2019 06:00:00 -0,8 -9,4 17 9 26 14 NE 20 0,0
21.03.2019 05:00:00 -0,7 -9,1 19 10 29 16 ENE 20 0,0
21.03.2019 04:00:00 -0,6 -8,5 23 12 32 17 NE 20 0,0
21.03.2019 03:00:00 -0,3 -8,7 16 9 27 15 E 20 0,0
21.03.2019 02:00:00 0,1 -8,9 22 12 33 18 ENE 20 0,0
21.03.2019 01:00:00 0,1 -9,1 19 11 31 17 NE 20 0,0
21.03.2019 00:00:00 0,2 -9,8 16 9 24 13 E 20 0,0
20.03.2019 23:00:00 -0,1 -9,3 15 8 25 14 ENE 20 0,0
20.03.2019 22:00:00 -0,4 -9,1 19 11 35 19 N 20 0,0
20.03.2019 21:00:00 -0,4 -8,1 23 12 35 19 N 20 0,0
20.03.2019 20:00:00 0,0 -7,3 28 15 42 23 N 20 0,0
20.03.2019 19:00:00 0,8 -7,2 30 16 39 21 N 20 0,0
20.03.2019 18:00:00 2,3 -7,9 26 14 37 20 N 20 0,0
20.03.2019 17:00:00 3,4 -8,0 24 13 37 20 N 20 0,0
20.03.2019 16:00:00 3,8 -8,6 20 11 33 18 N 20 0,0
20.03.2019 15:00:00 4,0 -9,1 14 8 34 19 N 20 0,0
20.03.2019 14:00:00 3,3 -10,0 17 9 35 19 NNE 20 0,0
20.03.2019 13:00:00 2,8 -10,1 26 14 42 23 NNE 20 0,0
20.03.2019 12:00:00 2,2 -11,4 22 12 44 24 NNE 20 0,0
20.03.2019 11:00:00 1,5 -11,3 23 12 40 22 NNE 20 0,0
20.03.2019 10:00:00 0,0 -11,1 32 17 51 27 N 20 0,0
20.03.2019 09:00:00 -1,3 -11,5 40 22 64 34 N 20 0,0
20.03.2019 08:00:00 -2,4 -11,2 43 23 55 30 N 20 0,0

tt = temperature
td = dewpoint
ff = wind speed
fx = gusts
dd = wind direction
vv = visibility
rr = precipitation

Next stations